Time,TemperatureF,DewpointF,PressureIn,WindDirection,WindDirectionDegrees,WindSpeedMPH,WindSpeedGustMPH,Humidity,HourlyPrecipIn,Conditions,Clouds,dailyrainin,SoftwareType,DateUTC
2013-01-08 00:00:00,41.0,38.3,30.26,SSE,158,0.0,0.0,90,0.00,,,0.02,WUHU216HW,2013-01-08 08:00:00,
2013-01-08 00:06:00,41.0,38.3,30.26,SSE,158,0.0,0.0,90,0.00,,,0.00,WUHU216HW,2013-01-08 08:06:00,
2013-01-08 00:11:00,41.0,38.3,30.25,SSE,158,0.0,0.0,90,0.00,,,0.00,WUHU216HW,2013-01-08 08:11:00,
2013-01-08 00:16:00,41.0,38.3,30.26,SSE,158,0.0,0.0,90,0.00,,,0.00,WUHU216HW,2013-01-08 08:16:00,
2013-01-08 00:21:00,41.0,38.3,30.26,SSE,158,0.0,0.0,90,0.00,,,0.00,WUHU216HW,2013-01-08 08:21:00,
2013-01-08 00:26:00,41.0,38.3,30.25,SSE,158,0.0,0.0,90,0.00,,,0.00,WUHU216HW,2013-01-08 08:26:00,
2013-01-08 00:31:00,40.9,38.2,30.25,East,90,0.0,0.0,90,0.00,,,0.00,WUHU216HW,2013-01-08 08:31:00,
2013-01-08 00:36:00,40.9,38.2,30.25,East,90,0.0,0.0,90,0.00,,,0.00,WUHU216HW,2013-01-08 08:36:00,
2013-01-08 00:41:00,40.9,38.2,30.26,East,90,0.0,0.0,90,0.00,,,0.00,WUHU216HW,2013-01-08 08:41:00,
2013-01-08 00:46:00,40.9,38.2,30.26,East,90,0.0,0.0,90,0.00,,,0.00,WUHU216HW,2013-01-08 08:46:00,
2013-01-08 00:51:00,40.9,38.2,30.26,East,90,0.0,0.0,90,0.00,,,0.00,WUHU216HW,2013-01-08 08:51:00,
2013-01-08 00:56:00,40.7,38.0,30.25,East,90,0.0,0.0,90,0.00,,,0.00,WUHU216HW,2013-01-08 08:56:00,
2013-01-08 01:01:00,40.7,38.0,30.26,East,90,0.0,0.0,90,0.00,,,0.00,WUHU216HW,2013-01-08 09:01:00,
2013-01-08 01:06:00,40.7,38.0,30.25,East,90,0.0,0.0,90,0.00,,,0.00,WUHU216HW,2013-01-08 09:06:00,
2013-01-08 01:11:00,40.7,38.0,30.25,East,90,0.0,0.0,90,0.00,,,0.00,WUHU216HW,2013-01-08 09:11:00,
2013-01-08 01:17:00,40.7,38.0,30.25,East,90,0.0,0.0,90,0.00,,,0.00,WUHU216HW,2013-01-08 09:17:00,
2013-01-08 01:22:00,40.5,37.8,30.26,East,90,0.0,0.0,90,0.00,,,0.00,WUHU216HW,2013-01-08 09:22:00,
2013-01-08 01:27:00,40.3,37.6,30.26,East,90,0.0,0.0,90,0.00,,,0.00,WUHU216HW,2013-01-08 09:27:00,
2013-01-08 01:32:00,40.3,37.6,30.26,East,90,0.0,0.0,90,0.00,,,0.00,WUHU216HW,2013-01-08 09:32:00,
2013-01-08 01:37:00,40.1,37.4,30.25,East,90,0.0,0.2,90,0.00,,,0.00,WUHU216HW,2013-01-08 09:37:00,
2013-01-08 01:42:00,40.1,37.4,30.25,East,90,0.0,0.2,90,0.00,,,0.00,WUHU216HW,2013-01-08 09:42:00,
2013-01-08 01:47:00,40.0,37.3,30.26,East,90,0.0,0.0,90,0.00,,,0.00,WUHU216HW,2013-01-08 09:47:00,
2013-01-08 01:52:00,40.0,37.3,30.26,East,90,0.0,0.0,90,0.00,,,0.00,WUHU216HW,2013-01-08 09:52:00,
2013-01-08 01:57:00,40.0,37.3,30.26,East,90,0.0,0.0,90,0.00,,,0.00,WUHU216HW,2013-01-08 09:57:00,
2013-01-08 02:02:00,40.0,37.3,30.26,East,90,0.0,0.0,90,0.00,,,0.00,WUHU216HW,2013-01-08 10:02:00,
2013-01-08 02:07:00,40.0,37.3,30.26,East,90,0.0,0.0,90,0.00,,,0.00,WUHU216HW,2013-01-08 10:07:00,
2013-01-08 02:12:00,39.8,37.1,30.26,East,90,0.0,0.0,90,0.00,,,0.00,WUHU216HW,2013-01-08 10:12:00,
2013-01-08 02:17:00,39.8,37.1,30.26,East,90,0.0,0.0,90,0.00,,,0.00,WUHU216HW,2013-01-08 10:17:00,
2013-01-08 02:22:00,39.8,37.1,30.27,East,90,0.0,0.0,90,0.00,,,0.00,WUHU216HW,2013-01-08 10:22:00,
2013-01-08 02:27:00,39.8,37.1,30.27,East,90,0.0,0.0,90,0.00,,,0.00,WUHU216HW,2013-01-08 10:27:00,
2013-01-08 02:32:00,39.8,37.1,30.27,East,90,0.0,0.0,90,0.00,,,0.00,WUHU216HW,2013-01-08 10:32:00,
2013-01-08 02:37:00,39.6,36.9,30.27,East,90,0.0,0.0,90,0.00,,,0.00,WUHU216HW,2013-01-08 10:37:00,
2013-01-08 02:43:00,39.6,36.9,30.27,East,90,0.0,0.0,90,0.00,,,0.00,WUHU216HW,2013-01-08 10:43:00,
2013-01-08 02:48:00,39.4,36.7,30.27,East,90,0.0,0.0,90,0.00,,,0.00,WUHU216HW,2013-01-08 10:48:00,
2013-01-08 02:53:00,39.2,36.5,30.27,East,90,0.0,0.0,90,0.00,,,0.00,WUHU216HW,2013-01-08 10:53:00,
2013-01-08 02:58:00,39.2,36.5,30.26,East,90,0.0,0.0,90,0.00,,,0.00,WUHU216HW,2013-01-08 10:58:00,
2013-01-08 03:03:00,39.2,36.5,30.26,East,90,0.0,0.0,90,0.00,,,0.00,WUHU216HW,2013-01-08 11:03:00,
2013-01-08 03:08:00,39.2,36.5,30.26,East,90,0.0,0.0,90,0.00,,,0.00,WUHU216HW,2013-01-08 11:08:00,
2013-01-08 03:13:00,39.1,36.4,30.26,East,90,0.0,0.0,90,0.00,,,0.00,WUHU216HW,2013-01-08 11:13:00,
2013-01-08 03:18:00,39.1,36.4,30.26,East,90,0.0,0.0,90,0.00,,,0.00,WUHU216HW,2013-01-08 11:18:00,
2013-01-08 03:23:00,39.1,36.4,30.26,East,90,0.0,0.0,90,0.00,,,0.00,WUHU216HW,2013-01-08 11:23:00,
2013-01-08 03:28:00,38.9,36.2,30.26,East,90,0.0,0.0,90,0.00,,,0.00,WUHU216HW,2013-01-08 11:28:00,
2013-01-08 03:33:00,38.9,36.2,30.26,East,90,0.0,0.0,90,0.00,,,0.00,WUHU216HW,2013-01-08 11:33:00,
2013-01-08 03:38:00,38.7,36.0,30.26,East,90,0.0,0.0,90,0.00,,,0.00,WUHU216HW,2013-01-08 11:38:00,
2013-01-08 03:43:00,38.7,36.0,30.26,East,90,0.0,0.0,90,0.00,,,0.00,WUHU216HW,2013-01-08 11:43:00,
2013-01-08 03:48:00,38.5,35.8,30.26,East,90,0.0,0.0,90,0.00,,,0.00,WUHU216HW,2013-01-08 11:48:00,
2013-01-08 03:54:00,38.5,35.8,30.26,East,90,0.0,0.0,90,0.00,,,0.00,WUHU216HW,2013-01-08 11:54:00,
2013-01-08 03:59:00,38.5,35.8,30.26,East,90,0.0,0.0,90,0.00,,,0.00,WUHU216HW,2013-01-08 11:59:00,
2013-01-08 04:04:00,38.3,35.6,30.25,East,90,0.0,0.0,90,0.00,,,0.00,WUHU216HW,2013-01-08 12:04:00,
2013-01-08 04:09:00,38.3,35.6,30.26,East,90,0.0,0.0,90,0.00,,,0.00,WUHU216HW,2013-01-08 12:09:00,
2013-01-08 04:14:00,38.2,35.5,30.25,East,90,0.0,0.0,90,0.00,,,0.00,WUHU216HW,2013-01-08 12:14:00,
2013-01-08 04:19:00,38.2,35.5,30.26,East,90,0.0,0.0,90,0.00,,,0.00,WUHU216HW,2013-01-08 12:19:00,
2013-01-08 04:24:00,38.2,35.5,30.26,East,90,0.0,0.0,90,0.00,,,0.00,WUHU216HW,2013-01-08 12:24:00,
2013-01-08 04:29:00,38.0,35.3,30.25,East,90,0.0,0.0,90,0.00,,,0.00,WUHU216HW,2013-01-08 12:29:00,
2013-01-08 04:34:00,38.0,35.3,30.25,East,90,0.0,0.0,90,0.00,,,0.00,WUHU216HW,2013-01-08 12:34:00,
2013-01-08 04:39:00,37.8,35.1,30.25,East,90,0.0,0.0,90,0.00,,,0.00,WUHU216HW,2013-01-08 12:39:00,
2013-01-08 04:44:00,37.8,35.1,30.25,East,90,0.0,0.0,90,0.00,,,0.00,WUHU216HW,2013-01-08 12:44:00,
2013-01-08 04:49:00,37.8,35.1,30.25,East,90,0.0,0.0,90,0.00,,,0.00,WUHU216HW,2013-01-08 12:49:00,
2013-01-08 04:54:00,37.8,35.4,30.24,East,90,0.0,0.0,91,0.00,,,0.00,WUHU216HW,2013-01-08 12:54:00,
2013-01-08 04:59:00,37.6,34.9,30.24,East,90,0.0,0.0,90,0.00,,,0.00,WUHU216HW,2013-01-08 12:59:00,
2013-01-08 05:04:00,37.6,35.2,30.24,East,90,0.0,0.0,91,0.00,,,0.00,WUHU216HW,2013-01-08 13:04:00,
2013-01-08 05:10:00,37.6,35.2,30.24,East,90,0.0,0.0,91,0.00,,,0.00,WUHU216HW,2013-01-08 13:10:00,
2013-01-08 05:15:00,37.4,35.0,30.24,East,90,0.0,0.0,91,0.00,,,0.00,WUHU216HW,2013-01-08 13:15:00,
2013-01-08 05:20:00,37.4,35.0,30.24,East,90,0.0,0.0,91,0.00,,,0.00,WUHU216HW,2013-01-08 13:20:00,
2013-01-08 05:25:00,37.4,35.0,30.24,East,90,0.0,0.0,91,0.00,,,0.00,WUHU216HW,2013-01-08 13:25:00,
2013-01-08 05:30:00,37.4,34.7,30.25,East,90,0.0,0.0,90,0.00,,,0.00,WUHU216HW,2013-01-08 13:30:00,
2013-01-08 05:35:00,37.6,34.9,30.25,East,90,0.0,0.0,90,0.00,,,0.00,WUHU216HW,2013-01-08 13:35:00,
2013-01-08 05:40:00,37.8,35.1,30.25,East,90,0.0,0.0,90,0.00,,,0.00,WUHU216HW,2013-01-08 13:40:00,
2013-01-08 05:45:00,37.8,35.1,30.25,East,90,0.0,0.0,90,0.00,,,0.00,WUHU216HW,2013-01-08 13:45:00,
2013-01-08 05:50:00,38.0,35.3,30.25,East,90,0.0,0.0,90,0.00,,,0.00,WUHU216HW,2013-01-08 13:50:00,
2013-01-08 05:55:00,38.2,35.5,30.25,East,90,0.0,0.0,90,0.00,,,0.00,WUHU216HW,2013-01-08 13:55:00,
2013-01-08 06:01:00,38.3,35.6,30.25,East,90,0.0,0.0,90,0.00,,,0.00,WUHU216HW,2013-01-08 14:01:00,
2013-01-08 06:06:00,38.3,35.6,30.25,East,90,0.0,0.0,90,0.00,,,0.00,WUHU216HW,2013-01-08 14:06:00,
2013-01-08 06:11:00,38.3,35.6,30.25,East,90,0.0,0.0,90,0.00,,,0.00,WUHU216HW,2013-01-08 14:11:00,
2013-01-08 06:16:00,38.3,35.6,30.25,East,90,0.0,0.0,90,0.00,,,0.00,WUHU216HW,2013-01-08 14:16:00,
2013-01-08 06:21:00,38.2,35.5,30.25,East,90,0.0,0.0,90,0.00,,,0.00,WUHU216HW,2013-01-08 14:21:00,
2013-01-08 06:26:00,38.2,35.5,30.25,East,90,0.0,0.0,90,0.00,,,0.00,WUHU216HW,2013-01-08 14:26:00,
2013-01-08 06:31:00,38.2,35.5,30.26,East,90,0.0,0.0,90,0.00,,,0.00,WUHU216HW,2013-01-08 14:31:00,
2013-01-08 06:36:00,38.0,35.3,30.26,East,90,0.0,0.0,90,0.00,,,0.00,WUHU216HW,2013-01-08 14:36:00,
2013-01-08 06:41:00,38.0,35.3,30.26,East,90,0.0,0.2,90,0.00,,,0.00,WUHU216HW,2013-01-08 14:41:00,
2013-01-08 06:46:00,37.8,35.1,30.26,East,90,0.0,0.2,90,0.00,,,0.00,WUHU216HW,2013-01-08 14:46:00,
2013-01-08 06:51:00,37.8,35.1,30.26,East,90,0.0,0.0,90,0.00,,,0.00,WUHU216HW,2013-01-08 14:51:00,
2013-01-08 06:56:00,37.8,35.1,30.27,East,90,0.0,0.0,90,0.00,,,0.00,WUHU216HW,2013-01-08 14:56:00,
2013-01-08 07:01:00,37.6,34.9,30.27,East,90,0.0,0.0,90,0.00,,,0.00,WUHU216HW,2013-01-08 15:01:00,
2013-01-08 07:06:00,37.6,34.9,30.27,East,90,0.0,0.0,90,0.00,,,0.00,WUHU216HW,2013-01-08 15:06:00,
2013-01-08 07:11:00,37.6,34.9,30.27,East,90,0.0,0.0,90,0.00,,,0.00,WUHU216HW,2013-01-08 15:11:00,
2013-01-08 07:16:00,37.6,34.9,30.28,East,90,0.0,0.0,90,0.00,,,0.00,WUHU216HW,2013-01-08 15:16:00,
2013-01-08 07:21:00,37.4,34.7,30.28,East,90,0.0,0.0,90,0.00,,,0.00,WUHU216HW,2013-01-08 15:21:00,
2013-01-08 07:26:00,37.4,34.7,30.28,East,90,0.0,0.0,90,0.00,,,0.00,WUHU216HW,2013-01-08 15:26:00,
2013-01-08 07:31:00,37.6,34.9,30.28,East,90,0.0,0.0,90,0.00,,,0.00,WUHU216HW,2013-01-08 15:31:00,
2013-01-08 07:36:00,37.6,34.9,30.28,East,90,0.0,0.0,90,0.00,,,0.00,WUHU216HW,2013-01-08 15:36:00,
2013-01-08 07:41:00,37.6,34.9,30.28,East,90,0.0,0.0,90,0.00,,,0.00,WUHU216HW,2013-01-08 15:41:00,
2013-01-08 07:47:00,37.6,34.9,30.29,East,90,0.0,0.0,90,0.00,,,0.00,WUHU216HW,2013-01-08 15:47:00,
2013-01-08 07:52:00,37.6,34.9,30.29,East,90,0.0,0.0,90,0.00,,,0.00,WUHU216HW,2013-01-08 15:52:00,
2013-01-08 07:57:00,37.6,34.9,30.29,East,90,0.0,0.0,90,0.00,,,0.00,WUHU216HW,2013-01-08 15:57:00,
2013-01-08 08:02:00,37.6,34.9,30.29,East,90,0.0,0.0,90,0.00,,,0.00,WUHU216HW,2013-01-08 16:02:00,
2013-01-08 08:07:00,37.6,34.9,30.29,East,90,0.0,0.0,90,0.00,,,0.00,WUHU216HW,2013-01-08 16:07:00,
2013-01-08 08:12:00,37.8,35.4,30.29,East,90,0.0,0.0,91,0.00,,,0.00,WUHU216HW,2013-01-08 16:12:00,
2013-01-08 08:17:00,38.0,35.6,30.29,East,90,0.0,0.0,91,0.00,,,0.00,WUHU216HW,2013-01-08 16:17:00,
2013-01-08 08:22:00,38.2,35.7,30.29,East,90,0.0,0.0,91,0.00,,,0.00,WUHU216HW,2013-01-08 16:22:00,
2013-01-08 08:27:00,38.3,35.9,30.29,East,90,0.0,0.0,91,0.00,,,0.00,WUHU216HW,2013-01-08 16:27:00,
2013-01-08 08:32:00,38.5,36.1,30.30,East,90,0.0,0.0,91,0.00,,,0.00,WUHU216HW,2013-01-08 16:32:00,
2013-01-08 08:38:00,38.7,36.3,30.30,East,90,0.0,0.0,91,0.00,,,0.00,WUHU216HW,2013-01-08 16:38:00,
2013-01-08 08:43:00,39.1,36.9,30.30,East,90,0.0,0.0,92,0.00,,,0.00,WUHU216HW,2013-01-08 16:43:00,
2013-01-08 08:48:00,39.4,37.3,30.30,East,90,0.0,0.0,92,0.00,,,0.00,WUHU216HW,2013-01-08 16:48:00,
2013-01-08 08:53:00,39.8,37.6,30.30,East,90,0.0,0.0,92,0.00,,,0.00,WUHU216HW,2013-01-08 16:53:00,
2013-01-08 08:58:00,40.1,38.0,30.31,East,90,0.0,0.0,92,0.00,,,0.00,WUHU216HW,2013-01-08 16:58:00,
2013-01-08 09:03:00,40.7,38.8,30.31,East,90,0.0,0.0,93,0.00,,,0.00,WUHU216HW,2013-01-08 17:03:00,
2013-01-08 09:08:00,41.0,39.2,30.31,East,90,0.0,0.0,93,0.00,,,0.00,WUHU216HW,2013-01-08 17:08:00,
2013-01-08 09:13:00,41.4,39.5,30.31,East,90,0.0,0.0,93,0.00,,,0.00,WUHU216HW,2013-01-08 17:13:00,
2013-01-08 09:18:00,41.9,40.1,30.31,East,90,0.0,0.0,93,0.00,,,0.00,WUHU216HW,2013-01-08 17:18:00,
2013-01-08 09:23:00,42.1,40.2,30.31,East,90,0.0,0.0,93,0.00,,,0.00,WUHU216HW,2013-01-08 17:23:00,
2013-01-08 09:28:00,42.5,40.6,30.31,East,90,0.0,0.0,93,0.00,,,0.00,WUHU216HW,2013-01-08 17:28:00,
2013-01-08 09:33:00,43.0,41.1,30.31,East,90,0.0,0.0,93,0.00,,,0.00,WUHU216HW,2013-01-08 17:33:00,
2013-01-08 09:38:00,43.4,41.5,30.32,East,90,0.2,0.2,93,0.00,,,0.00,WUHU216HW,2013-01-08 17:38:00,
2013-01-08 09:43:00,43.7,41.6,30.32,East,90,0.0,0.2,92,0.00,,,0.00,WUHU216HW,2013-01-08 17:43:00,
2013-01-08 09:48:00,44.1,41.9,30.31,SSE,158,0.4,1.1,92,0.00,,,0.00,WUHU216HW,2013-01-08 17:48:00,
2013-01-08 09:53:00,44.6,42.5,30.31,SE,135,0.0,1.1,92,0.00,,,0.00,WUHU216HW,2013-01-08 17:53:00,
2013-01-08 09:59:00,45.2,42.8,30.31,SE,135,0.4,0.4,91,0.00,,,0.00,WUHU216HW,2013-01-08 17:59:00,
2013-01-08 10:04:00,45.5,43.4,30.31,WSW,248,0.0,0.7,92,0.00,,,0.00,WUHU216HW,2013-01-08 18:04:00,
2013-01-08 10:09:00,45.9,43.5,30.31,SSE,158,2.2,2.5,91,0.00,,,0.00,WUHU216HW,2013-01-08 18:09:00,
2013-01-08 10:14:00,46.3,43.6,30.31,ESE,113,0.9,2.5,90,0.00,,,0.00,WUHU216HW,2013-01-08 18:14:00,
2013-01-08 10:19:00,46.8,44.1,30.30,North,0,1.8,1.8,90,0.00,,,0.00,WUHU216HW,2013-01-08 18:19:00,
2013-01-08 10:24:00,46.8,43.8,30.30,NW,315,0.0,1.8,89,0.00,,,0.00,WUHU216HW,2013-01-08 18:24:00,
2013-01-08 10:29:00,47.2,43.8,30.30,South,180,0.7,0.9,88,0.00,,,0.00,WUHU216HW,2013-01-08 18:29:00,
2013-01-08 10:34:00,47.3,44.0,30.29,SE,135,0.2,1.3,88,0.00,,,0.00,WUHU216HW,2013-01-08 18:34:00,
2013-01-08 10:39:00,47.9,44.2,30.29,NW,315,1.3,1.3,87,0.00,,,0.00,WUHU216HW,2013-01-08 18:39:00,
2013-01-08 10:44:00,48.1,44.4,30.29,SSE,158,0.4,1.8,87,0.00,,,0.00,WUHU216HW,2013-01-08 18:44:00,
2013-01-08 10:49:00,48.2,44.3,30.29,SE,135,1.1,1.8,86,0.00,,,0.00,WUHU216HW,2013-01-08 18:49:00,
2013-01-08 10:54:00,48.6,44.6,30.29,North,0,0.0,1.1,86,0.00,,,0.00,WUHU216HW,2013-01-08 18:54:00,
2013-01-08 10:59:00,48.6,44.3,30.29,SSW,203,1.8,1.8,85,0.00,,,0.00,WUHU216HW,2013-01-08 18:59:00,
2013-01-08 11:04:00,49.0,44.7,30.28,NNW,338,0.4,1.8,85,0.00,,,0.00,WUHU216HW,2013-01-08 19:04:00,
2013-01-08 11:09:00,49.3,44.7,30.28,ENE,68,0.2,1.1,84,0.00,,,0.00,WUHU216HW,2013-01-08 19:09:00,
2013-01-08 11:14:00,49.7,45.0,30.27,SSE,158,1.8,2.5,84,0.00,,,0.00,WUHU216HW,2013-01-08 19:14:00,
2013-01-08 11:19:00,50.0,45.0,30.27,West,270,0.4,2.5,83,0.00,,,0.00,WUHU216HW,2013-01-08 19:19:00,
2013-01-08 11:24:00,50.2,45.6,30.26,South,180,0.9,1.1,84,0.00,,,0.00,WUHU216HW,2013-01-08 19:24:00,
2013-01-08 11:30:00,50.6,45.5,30.26,WNW,293,0.0,1.1,83,0.00,,,0.00,WUHU216HW,2013-01-08 19:30:00,
2013-01-08 11:35:00,50.6,45.5,30.26,NNW,338,0.4,1.1,83,0.00,,,0.00,WUHU216HW,2013-01-08 19:35:00,
2013-01-08 11:40:00,50.6,45.5,30.26,NW,315,2.7,2.7,83,0.00,,,0.00,WUHU216HW,2013-01-08 19:40:00,
2013-01-08 11:45:00,50.4,45.1,30.26,NW,315,0.7,2.7,82,0.00,,,0.00,WUHU216HW,2013-01-08 19:45:00,
2013-01-08 11:50:00,50.6,45.3,30.26,NNW,338,2.5,2.5,82,0.00,,,0.00,WUHU216HW,2013-01-08 19:50:00,
2013-01-08 11:55:00,50.6,45.3,30.26,South,180,0.4,2.5,82,0.00,,,0.00,WUHU216HW,2013-01-08 19:55:00,
2013-01-08 12:00:00,50.9,45.3,30.25,ESE,113,0.2,2.5,81,0.00,,,0.00,WUHU216HW,2013-01-08 20:00:00,
2013-01-08 12:05:00,51.1,45.5,30.25,NW,315,1.3,1.3,81,0.00,,,0.00,WUHU216HW,2013-01-08 20:05:00,
2013-01-08 12:10:00,51.1,44.8,30.25,SSE,158,1.8,2.2,79,0.00,,,0.00,WUHU216HW,2013-01-08 20:10:00,
2013-01-08 12:15:00,51.5,45.8,30.25,South,180,1.1,2.2,81,0.00,,,0.00,WUHU216HW,2013-01-08 20:15:00,
2013-01-08 12:20:00,51.7,45.7,30.25,NNW,338,1.1,1.1,80,0.00,,,0.00,WUHU216HW,2013-01-08 20:20:00,
2013-01-08 12:25:00,51.8,45.9,30.25,NNW,338,2.2,2.2,80,0.00,,,0.00,WUHU216HW,2013-01-08 20:25:00,
2013-01-08 12:30:00,52.0,46.1,30.25,NW,315,1.6,2.2,80,0.00,,,0.00,WUHU216HW,2013-01-08 20:30:00,
2013-01-08 12:35:00,52.0,46.1,30.24,SSW,203,0.2,1.6,80,0.00,,,0.00,WUHU216HW,2013-01-08 20:35:00,
2013-01-08 12:40:00,52.2,45.9,30.24,NW,315,2.7,2.7,79,0.00,,,0.00,WUHU216HW,2013-01-08 20:40:00,
2013-01-08 12:45:00,52.2,45.9,30.24,NW,315,1.1,2.7,79,0.00,,,0.00,WUHU216HW,2013-01-08 20:45:00,
2013-01-08 12:50:00,52.2,45.9,30.24,WNW,293,0.0,1.1,79,0.00,,,0.00,WUHU216HW,2013-01-08 20:50:00,
2013-01-08 12:55:00,52.4,46.1,30.24,SW,225,0.4,1.8,79,0.00,,,0.00,WUHU216HW,2013-01-08 20:55:00,
2013-01-08 13:01:00,52.7,46.4,30.24,WNW,293,1.6,1.8,79,0.00,,,0.00,WUHU216HW,2013-01-08 21:01:00,
2013-01-08 13:06:00,52.9,46.3,30.23,NNW,338,1.6,2.9,78,0.00,,,0.00,WUHU216HW,2013-01-08 21:06:00,
2013-01-08 13:11:00,52.7,46.1,30.23,NW,315,1.6,2.9,78,0.00,,,0.00,WUHU216HW,2013-01-08 21:11:00,
2013-01-08 13:16:00,52.9,46.3,30.23,NE,45,1.1,2.9,78,0.00,,,0.00,WUHU216HW,2013-01-08 21:16:00,
2013-01-08 13:21:00,52.9,46.3,30.23,NNW,338,0.4,3.4,78,0.00,,,0.00,WUHU216HW,2013-01-08 21:21:00,
2013-01-08 13:26:00,53.1,45.4,30.23,East,90,1.6,3.4,75,0.00,,,0.00,WUHU216HW,2013-01-08 21:26:00,
2013-01-08 13:31:00,53.3,45.5,30.23,NE,45,0.9,2.5,75,0.00,,,0.00,WUHU216HW,2013-01-08 21:31:00,
2013-01-08 13:36:00,53.6,46.3,30.23,WNW,293,0.7,1.8,76,0.00,,,0.00,WUHU216HW,2013-01-08 21:36:00,
2013-01-08 13:41:00,53.6,45.9,30.22,NE,45,0.4,1.8,75,0.00,,,0.00,WUHU216HW,2013-01-08 21:41:00,
2013-01-08 13:46:00,53.8,46.1,30.22,North,0,0.4,1.3,75,0.00,,,0.00,WUHU216HW,2013-01-08 21:46:00,
2013-01-08 13:51:00,54.0,46.3,30.22,SSE,158,1.1,1.1,75,0.00,,,0.00,WUHU216HW,2013-01-08 21:51:00,
2013-01-08 13:56:00,54.2,46.5,30.22,SE,135,0.0,1.3,75,0.00,,,0.00,WUHU216HW,2013-01-08 21:56:00,
2013-01-08 14:01:00,54.4,46.6,30.22,ESE,113,0.0,1.3,75,0.00,,,0.00,WUHU216HW,2013-01-08 22:01:00,
2013-01-08 14:06:00,54.4,46.6,30.22,NW,315,0.4,1.8,75,0.00,,,0.00,WUHU216HW,2013-01-08 22:06:00,
2013-01-08 14:11:00,54.4,46.6,30.22,North,0,0.0,1.8,75,0.00,,,0.00,WUHU216HW,2013-01-08 22:11:00,
2013-01-08 14:17:00,54.4,46.3,30.22,ESE,113,0.7,1.1,74,0.00,,,0.00,WUHU216HW,2013-01-08 22:17:00,
2013-01-08 14:22:00,54.5,46.5,30.23,East,90,0.0,1.3,74,0.00,,,0.00,WUHU216HW,2013-01-08 22:22:00,
2013-01-08 14:27:00,54.7,46.9,30.22,NW,315,1.3,1.3,75,0.00,,,0.00,WUHU216HW,2013-01-08 22:27:00,
2013-01-08 14:32:00,54.7,46.9,30.22,East,90,0.4,1.3,75,0.00,,,0.00,WUHU216HW,2013-01-08 22:32:00,
2013-01-08 14:37:00,54.7,46.9,30.22,ENE,68,0.2,1.6,75,0.00,,,0.00,WUHU216HW,2013-01-08 22:37:00,
2013-01-08 14:42:00,54.7,46.9,30.22,WNW,293,1.1,1.6,75,0.00,,,0.00,WUHU216HW,2013-01-08 22:42:00,
2013-01-08 14:47:00,54.7,46.9,30.22,NW,315,0.9,1.3,75,0.00,,,0.00,WUHU216HW,2013-01-08 22:47:00,
2013-01-08 14:52:00,54.5,46.8,30.22,NE,45,1.3,1.3,75,0.00,,,0.00,WUHU216HW,2013-01-08 22:52:00,
2013-01-08 14:57:00,54.5,46.8,30.22,ENE,68,1.3,1.3,75,0.00,,,0.00,WUHU216HW,2013-01-08 22:57:00,
2013-01-08 15:02:00,54.5,46.8,30.22,NW,315,1.1,1.3,75,0.00,,,0.00,WUHU216HW,2013-01-08 23:02:00,
2013-01-08 15:07:00,54.5,46.8,30.22,West,270,0.4,1.1,75,0.00,,,0.00,WUHU216HW,2013-01-08 23:07:00,
2013-01-08 15:12:00,54.5,46.8,30.21,NNW,338,1.8,1.8,75,0.00,,,0.00,WUHU216HW,2013-01-08 23:12:00,
2013-01-08 15:17:00,54.4,46.3,30.21,WNW,293,1.6,2.0,74,0.00,,,0.00,WUHU216HW,2013-01-08 23:17:00,
2013-01-08 15:22:00,54.4,46.6,30.21,WNW,293,0.0,2.0,75,0.00,,,0.00,WUHU216HW,2013-01-08 23:22:00,
2013-01-08 15:28:00,54.4,46.3,30.21,NE,45,0.9,0.9,74,0.00,,,0.00,WUHU216HW,2013-01-08 23:28:00,
2013-01-08 15:33:00,54.4,46.3,30.21,East,90,0.4,0.9,74,0.00,,,0.00,WUHU216HW,2013-01-08 23:33:00,
2013-01-08 15:38:00,54.5,46.1,30.21,SSE,158,0.2,1.3,73,0.00,,,0.00,WUHU216HW,2013-01-08 23:38:00,
2013-01-08 15:43:00,54.5,46.1,30.21,SSW,203,0.0,1.3,73,0.00,,,0.00,WUHU216HW,2013-01-08 23:43:00,
2013-01-08 15:48:00,54.7,46.6,30.21,NW,315,0.4,0.9,74,0.00,,,0.00,WUHU216HW,2013-01-08 23:48:00,
2013-01-08 15:53:00,54.5,46.5,30.21,NW,315,0.2,1.1,74,0.00,,,0.00,WUHU216HW,2013-01-08 23:53:00,
2013-01-08 15:58:00,54.4,46.3,30.21,NW,315,0.4,1.1,74,0.00,,,0.00,WUHU216HW,2013-01-08 23:58:00,
2013-01-08 16:03:00,54.4,46.3,30.21,SW,225,0.0,0.4,74,0.00,,,0.00,WUHU216HW,2013-01-09 00:03:00,
2013-01-08 16:08:00,54.4,46.3,30.21,South,180,0.2,1.3,74,0.00,,,0.00,WUHU216HW,2013-01-09 00:08:00,
2013-01-08 16:13:00,54.2,46.1,30.21,SSW,203,0.7,1.6,74,0.00,,,0.00,WUHU216HW,2013-01-09 00:13:00,
2013-01-08 16:18:00,54.0,46.3,30.21,South,180,1.6,1.8,75,0.00,,,0.00,WUHU216HW,2013-01-09 00:18:00,
2013-01-08 16:23:00,54.0,46.3,30.21,South,180,0.0,1.8,75,0.00,,,0.00,WUHU216HW,2013-01-09 00:23:00,
2013-01-08 16:28:00,53.8,46.1,30.21,SSW,203,0.7,0.9,75,0.00,,,0.00,WUHU216HW,2013-01-09 00:28:00,
2013-01-08 16:33:00,53.6,45.9,30.21,SSW,203,0.4,0.7,75,0.00,,,0.00,WUHU216HW,2013-01-09 00:33:00,
2013-01-08 16:39:00,53.5,45.7,30.21,SSE,158,0.0,0.4,75,0.00,,,0.00,WUHU216HW,2013-01-09 00:39:00,
2013-01-08 16:44:00,53.1,45.4,30.20,SSE,158,0.2,0.4,75,0.00,,,0.00,WUHU216HW,2013-01-09 00:44:00,
2013-01-08 16:49:00,52.7,45.0,30.20,SSE,158,0.0,0.2,75,0.00,,,0.00,WUHU216HW,2013-01-09 00:49:00,
2013-01-08 16:54:00,52.6,45.2,30.20,SSE,158,0.0,0.2,76,0.00,,,0.00,WUHU216HW,2013-01-09 00:54:00,
2013-01-08 16:59:00,52.2,44.9,30.20,SSE,158,0.0,0.0,76,0.00,,,0.00,WUHU216HW,2013-01-09 00:59:00,
2013-01-08 17:04:00,51.8,44.9,30.20,SSE,158,0.0,0.0,77,0.00,,,0.00,WUHU216HW,2013-01-09 01:04:00,
2013-01-08 17:09:00,51.5,44.6,30.20,SSE,158,0.0,0.0,77,0.00,,,0.00,WUHU216HW,2013-01-09 01:09:00,
2013-01-08 17:14:00,51.1,44.5,30.20,SSE,158,0.0,0.0,78,0.00,,,0.00,WUHU216HW,2013-01-09 01:14:00,
2013-01-08 17:19:00,50.8,44.1,30.20,SSE,158,0.0,0.0,78,0.00,,,0.00,WUHU216HW,2013-01-09 01:19:00,
2013-01-08 17:24:00,50.4,43.7,30.20,SSE,158,0.0,0.0,78,0.00,,,0.00,WUHU216HW,2013-01-09 01:24:00,
2013-01-08 17:29:00,50.0,43.7,30.19,SSE,158,0.0,0.0,79,0.00,,,0.00,WUHU216HW,2013-01-09 01:29:00,
2013-01-08 17:34:00,49.9,43.6,30.20,SSE,158,0.0,0.0,79,0.00,,,0.00,WUHU216HW,2013-01-09 01:34:00,
2013-01-08 17:39:00,49.5,43.6,30.20,SSE,158,0.0,0.0,80,0.00,,,0.00,WUHU216HW,2013-01-09 01:39:00,
2013-01-08 17:44:00,49.3,43.4,30.20,SSE,158,0.0,0.0,80,0.00,,,0.00,WUHU216HW,2013-01-09 01:44:00,
2013-01-08 17:50:00,49.0,43.4,30.20,SSE,158,0.0,0.0,81,0.00,,,0.00,WUHU216HW,2013-01-09 01:50:00,
2013-01-08 17:55:00,48.8,43.2,30.20,SSE,158,0.0,0.0,81,0.00,,,0.00,WUHU216HW,2013-01-09 01:55:00,
2013-01-08 18:00:00,48.6,43.3,30.20,SSE,158,0.0,0.0,82,0.00,,,0.00,WUHU216HW,2013-01-09 02:00:00,
2013-01-08 18:05:00,48.4,43.1,30.20,SSE,158,0.0,0.0,82,0.00,,,0.00,WUHU216HW,2013-01-09 02:05:00,
2013-01-08 18:10:00,48.1,42.5,30.20,SSE,158,0.0,0.0,81,0.00,,,0.00,WUHU216HW,2013-01-09 02:10:00,
2013-01-08 18:15:00,47.9,42.3,30.20,SSE,158,0.0,0.0,81,0.00,,,0.00,WUHU216HW,2013-01-09 02:15:00,
2013-01-08 18:20:00,47.7,42.5,30.20,SE,135,0.0,0.0,82,0.00,,,0.00,WUHU216HW,2013-01-09 02:20:00,
2013-01-08 18:25:00,47.5,42.3,30.20,SE,135,0.0,0.0,82,0.00,,,0.00,WUHU216HW,2013-01-09 02:25:00,
2013-01-08 18:30:00,47.3,42.1,30.20,SE,135,0.0,0.0,82,0.00,,,0.00,WUHU216HW,2013-01-09 02:30:00,
2013-01-08 18:35:00,47.2,42.3,30.20,SE,135,0.0,0.0,83,0.00,,,0.00,WUHU216HW,2013-01-09 02:35:00,
2013-01-08 18:40:00,47.2,42.3,30.20,SE,135,0.0,0.0,83,0.00,,,0.00,WUHU216HW,2013-01-09 02:40:00,
2013-01-08 18:45:00,47.0,42.1,30.20,SE,135,0.0,0.0,83,0.00,,,0.00,WUHU216HW,2013-01-09 02:45:00,
2013-01-08 18:51:00,46.8,42.0,30.21,SE,135,0.0,0.0,83,0.00,,,0.00,WUHU216HW,2013-01-09 02:51:00,
2013-01-08 18:56:00,46.6,42.0,30.21,SE,135,0.0,0.0,84,0.00,,,0.00,WUHU216HW,2013-01-09 02:56:00,
2013-01-08 19:01:00,46.4,42.0,30.21,SE,135,0.0,0.0,84,0.00,,,0.00,WUHU216HW,2013-01-09 03:01:00,
2013-01-08 19:06:00,46.3,41.8,30.21,SE,135,0.0,0.0,84,0.00,,,0.00,WUHU216HW,2013-01-09 03:06:00,
2013-01-08 19:11:00,46.1,41.6,30.21,SE,135,0.0,0.0,84,0.00,,,0.00,WUHU216HW,2013-01-09 03:11:00,
2013-01-08 19:16:00,45.9,41.7,30.20,SE,135,0.0,0.0,85,0.00,,,0.00,WUHU216HW,2013-01-09 03:16:00,
2013-01-08 19:21:00,45.9,41.7,30.20,SE,135,0.0,0.0,85,0.00,,,0.00,WUHU216HW,2013-01-09 03:21:00,
2013-01-08 19:26:00,45.7,41.5,30.20,SE,135,0.0,0.0,85,0.00,,,0.00,WUHU216HW,2013-01-09 03:26:00,
2013-01-08 19:31:00,45.7,41.5,30.21,SE,135,0.0,0.0,85,0.00,,,0.00,WUHU216HW,2013-01-09 03:31:00,
2013-01-08 19:36:00,45.5,41.3,30.21,SE,135,0.0,0.0,85,0.00,,,0.00,WUHU216HW,2013-01-09 03:36:00,
2013-01-08 19:41:00,45.4,41.1,30.21,SE,135,0.0,0.0,85,0.00,,,0.00,WUHU216HW,2013-01-09 03:41:00,
2013-01-08 19:46:00,45.4,41.1,30.21,SE,135,0.0,0.0,85,0.00,,,0.00,WUHU216HW,2013-01-09 03:46:00,
2013-01-08 19:51:00,45.2,41.0,30.21,SE,135,0.0,0.0,85,0.00,,,0.00,WUHU216HW,2013-01-09 03:51:00,
2013-01-08 19:56:00,45.0,40.8,30.21,SE,135,0.0,0.0,85,0.00,,,0.00,WUHU216HW,2013-01-09 03:56:00,
2013-01-08 20:01:00,45.0,40.8,30.21,SE,135,0.0,0.0,85,0.00,,,0.00,WUHU216HW,2013-01-09 04:01:00,
2013-01-08 20:06:00,44.8,40.6,30.21,SE,135,0.0,0.0,85,0.00,,,0.00,WUHU216HW,2013-01-09 04:06:00,
2013-01-08 20:11:00,44.6,40.7,30.21,SE,135,0.0,0.0,86,0.00,,,0.00,WUHU216HW,2013-01-09 04:11:00,
2013-01-08 20:16:00,44.6,40.7,30.21,SE,135,0.0,0.0,86,0.00,,,0.00,WUHU216HW,2013-01-09 04:16:00,
2013-01-08 20:21:00,44.5,40.5,30.21,SE,135,0.0,0.0,86,0.00,,,0.00,WUHU216HW,2013-01-09 04:21:00,
2013-01-08 20:27:00,44.3,40.3,30.21,SE,135,0.0,0.0,86,0.00,,,0.00,WUHU216HW,2013-01-09 04:27:00,
2013-01-08 20:32:00,44.3,40.3,30.22,SE,135,0.0,0.0,86,0.00,,,0.00,WUHU216HW,2013-01-09 04:32:00,
2013-01-08 20:37:00,44.1,40.1,30.22,SE,135,0.0,0.0,86,0.00,,,0.00,WUHU216HW,2013-01-09 04:37:00,
2013-01-08 20:42:00,44.1,40.5,30.22,SE,135,0.0,0.0,87,0.00,,,0.00,WUHU216HW,2013-01-09 04:42:00,
2013-01-08 20:47:00,44.1,40.5,30.23,SE,135,0.0,0.0,87,0.00,,,0.00,WUHU216HW,2013-01-09 04:47:00,
2013-01-08 20:52:00,43.9,40.3,30.23,SE,135,0.0,0.0,87,0.00,,,0.00,WUHU216HW,2013-01-09 04:52:00,
2013-01-08 20:57:00,43.9,40.3,30.23,SE,135,0.0,0.0,87,0.00,,,0.00,WUHU216HW,2013-01-09 04:57:00,
2013-01-08 21:00:00,43.9,40.3,30.23,SE,135,0.0,0.0,87,0.00,,,0.00,WUHU216HW,2013-01-09 05:00:00,
2013-01-08 21:01:00,43.9,40.3,30.23,SE,135,0.0,0.0,87,0.00,,,0.00,WUHU216HW,2013-01-09 05:01:00,
2013-01-08 21:02:00,43.9,40.3,30.23,SE,135,0.0,0.0,87,0.00,,,0.00,WUHU216HW,2013-01-09 05:02:00,
2013-01-08 21:07:00,43.9,40.6,30.22,SE,135,0.0,0.0,88,0.00,,,0.00,WUHU216HW,2013-01-09 05:07:00,
2013-01-08 21:12:00,43.9,40.6,30.22,SE,135,0.0,0.0,88,0.00,,,0.00,WUHU216HW,2013-01-09 05:12:00,
2013-01-08 21:17:00,43.9,40.6,30.21,SE,135,0.0,0.0,88,0.00,,,0.00,WUHU216HW,2013-01-09 05:17:00,
2013-01-08 21:22:00,43.9,40.6,30.21,SE,135,0.0,0.0,88,0.00,,,0.00,WUHU216HW,2013-01-09 05:22:00,
2013-01-08 21:27:00,43.9,40.6,30.21,SE,135,0.0,0.0,88,0.00,,,0.00,WUHU216HW,2013-01-09 05:27:00,
2013-01-08 21:32:00,43.7,40.4,30.21,SE,135,0.0,0.0,88,0.00,,,0.00,WUHU216HW,2013-01-09 05:32:00,
2013-01-08 21:37:00,43.7,40.4,30.21,SE,135,0.0,0.0,88,0.00,,,0.00,WUHU216HW,2013-01-09 05:37:00,
2013-01-08 21:42:00,43.7,40.4,30.21,SE,135,0.0,0.0,88,0.00,,,0.00,WUHU216HW,2013-01-09 05:42:00,
2013-01-08 21:48:00,43.7,40.4,30.21,SE,135,0.0,0.0,88,0.00,,,0.00,WUHU216HW,2013-01-09 05:48:00,
2013-01-08 21:53:00,43.7,40.4,30.21,SE,135,0.0,0.0,88,0.00,,,0.00,WUHU216HW,2013-01-09 05:53:00,
2013-01-08 21:58:00,43.6,40.2,30.21,SE,135,0.0,0.0,88,0.00,,,0.00,WUHU216HW,2013-01-09 05:58:00,
2013-01-08 22:03:00,43.6,40.2,30.21,SE,135,0.0,0.0,88,0.00,,,0.00,WUHU216HW,2013-01-09 06:03:00,
2013-01-08 22:08:00,43.7,40.4,30.22,SE,135,0.0,0.0,88,0.00,,,0.00,WUHU216HW,2013-01-09 06:08:00,
2013-01-08 22:13:00,43.6,40.2,30.22,SE,135,0.0,0.0,88,0.00,,,0.00,WUHU216HW,2013-01-09 06:13:00,
2013-01-08 22:18:00,43.6,40.2,30.22,SE,135,0.0,0.0,88,0.00,,,0.00,WUHU216HW,2013-01-09 06:18:00,
2013-01-08 22:23:00,43.6,40.2,30.22,SE,135,0.0,0.0,88,0.00,,,0.00,WUHU216HW,2013-01-09 06:23:00,
2013-01-08 22:28:00,43.6,40.2,30.22,SE,135,0.0,0.0,88,0.00,,,0.00,WUHU216HW,2013-01-09 06:28:00,
2013-01-08 22:33:00,43.4,40.1,30.22,SE,135,0.0,0.0,88,0.00,,,0.00,WUHU216HW,2013-01-09 06:33:00,
2013-01-08 22:38:00,43.2,39.9,30.22,SE,135,0.0,0.0,88,0.00,,,0.00,WUHU216HW,2013-01-09 06:38:00,
2013-01-08 22:43:00,43.2,39.6,30.22,SE,135,0.0,0.0,87,0.00,,,0.00,WUHU216HW,2013-01-09 06:43:00,
2013-01-08 22:48:00,43.2,39.6,30.22,SE,135,0.0,0.0,87,0.00,,,0.00,WUHU216HW,2013-01-09 06:48:00,
2013-01-08 22:53:00,43.2,39.6,30.22,SE,135,0.0,0.0,87,0.00,,,0.00,WUHU216HW,2013-01-09 06:53:00,
2013-01-08 22:59:00,43.2,39.6,30.22,SE,135,0.0,0.0,87,0.00,,,0.00,WUHU216HW,2013-01-09 06:59:00,
2013-01-08 23:04:00,43.0,39.7,30.22,SE,135,0.0,0.0,88,0.00,,,0.00,WUHU216HW,2013-01-09 07:04:00,
2013-01-08 23:09:00,43.0,39.7,30.22,SE,135,0.0,0.0,88,0.00,,,0.00,WUHU216HW,2013-01-09 07:09:00,
2013-01-08 23:14:00,43.0,39.7,30.22,SE,135,0.0,0.0,88,0.00,,,0.00,WUHU216HW,2013-01-09 07:14:00,
2013-01-08 23:19:00,43.0,39.7,30.22,SE,135,0.0,0.0,88,0.00,,,0.00,WUHU216HW,2013-01-09 07:19:00,
2013-01-08 23:24:00,43.0,39.7,30.22,SE,135,0.0,0.0,88,0.00,,,0.00,WUHU216HW,2013-01-09 07:24:00,
2013-01-08 23:29:00,43.0,39.7,30.23,SE,135,0.0,0.0,88,0.00,,,0.00,WUHU216HW,2013-01-09 07:29:00,
2013-01-08 23:34:00,42.8,39.5,30.23,SE,135,0.0,0.0,88,0.00,,,0.00,WUHU216HW,2013-01-09 07:34:00,
2013-01-08 23:39:00,42.8,39.5,30.23,SE,135,0.0,0.0,88,0.00,,,0.00,WUHU216HW,2013-01-09 07:39:00,
2013-01-08 23:44:00,42.8,39.5,30.23,SE,135,0.0,0.0,88,0.00,,,0.00,WUHU216HW,2013-01-09 07:44:00,
2013-01-08 23:49:00,42.8,39.5,30.23,SE,135,0.0,0.0,88,0.00,,,0.00,WUHU216HW,2013-01-09 07:49:00,
2013-01-08 23:54:00,42.8,39.5,30.23,SE,135,0.0,0.0,88,0.00,,,0.00,WUHU216HW,2013-01-09 07:54:00,
2013-01-08 23:59:00,42.7,39.3,30.22,SE,135,0.0,0.0,88,0.00,,,0.00,WUHU216HW,2013-01-09 07:59:00,